createdAt,value
2023-04-05T00:01:57.124Z,7.10
2023-04-05T00:04:32.944Z,8.68
2023-04-05T00:07:05.059Z,11.68
2023-04-05T00:09:38.028Z,8.65
2023-04-05T00:12:09.652Z,8.70
2023-04-05T00:14:41.558Z,8.48
2023-04-05T00:17:12.373Z,6.97
2023-04-05T00:19:43.349Z,8.57
2023-04-05T00:22:15.334Z,8.23
2023-04-05T00:24:45.874Z,9.18
2023-04-05T00:27:17.742Z,7.28
2023-04-05T00:30:25.975Z,7.38
2023-04-05T00:33:00.105Z,10.35
2023-04-05T00:35:48.357Z,8.40
2023-04-05T00:38:30.134Z,9.55
2023-04-05T00:41:01.729Z,7.30
2023-04-05T00:43:33.197Z,7.85
2023-04-05T00:46:10.914Z,7.57
2023-04-05T00:49:03.058Z,8.27
2023-04-05T00:51:34.908Z,8.18
2023-04-05T00:54:16.112Z,8.95
2023-04-05T00:56:53.215Z,6.55
2023-04-05T00:59:25.264Z,7.35
2023-04-05T01:01:58.220Z,7.55
2023-04-05T01:04:27.866Z,10.70
2023-04-05T01:07:04.777Z,7.20
2023-04-05T01:09:55.562Z,7.80
2023-04-05T01:12:26.354Z,7.32
2023-04-05T01:14:56.285Z,6.70
2023-04-05T01:17:30.470Z,8.13
2023-04-05T01:20:00.601Z,7.07
2023-04-05T01:22:42.139Z,7.82
2023-04-05T01:25:30.865Z,7.82
2023-04-05T01:28:13.290Z,8.77
2023-04-05T01:31:09.789Z,7.57
2023-04-05T01:33:49.677Z,8.70
2023-04-05T01:36:19.882Z,8.23
2023-04-05T01:38:54.856Z,7.80
2023-04-05T01:41:26.645Z,7.72
2023-04-05T01:43:55.521Z,9.27
2023-04-05T01:46:31.374Z,7.22
2023-04-05T01:49:00.376Z,8.00
2023-04-05T01:51:29.123Z,9.85
2023-04-05T01:53:57.816Z,8.45
2023-04-05T01:56:27.541Z,11.25
2023-04-05T01:58:59.408Z,6.47
2023-04-05T02:02:20.168Z,8.60
2023-04-05T02:04:51.988Z,9.43
2023-04-05T02:07:22.813Z,7.95
2023-04-05T02:09:51.546Z,9.85
2023-04-05T02:12:22.796Z,8.98
2023-04-05T02:14:51.672Z,8.02
2023-04-05T02:17:22.148Z,10.60
2023-04-05T02:19:54.132Z,8.55
2023-04-05T02:22:22.872Z,9.38
2023-04-05T02:24:51.782Z,7.18
2023-04-05T02:27:20.487Z,7.75
2023-04-05T02:29:53.133Z,7.72
2023-04-05T02:32:25.317Z,7.65
2023-04-05T02:34:58.579Z,10.77
2023-04-05T02:37:27.344Z,6.78
2023-04-05T02:39:56.255Z,8.10
2023-04-05T02:42:25.032Z,7.95
2023-04-05T02:44:53.970Z,7.53
2023-04-05T02:47:22.789Z,8.57
2023-04-05T02:49:51.646Z,8.90
2023-04-05T02:52:22.260Z,9.10
2023-04-05T02:54:51.032Z,10.43
2023-04-05T02:57:20.381Z,8.60
2023-04-05T02:59:49.170Z,8.85
2023-04-05T03:02:17.927Z,10.15
2023-04-05T03:04:46.636Z,8.57
2023-04-05T03:07:18.723Z,11.77
2023-04-05T03:09:50.078Z,8.93
2023-04-05T03:12:19.186Z,7.38
2023-04-05T03:14:50.573Z,8.57
2023-04-05T03:17:19.337Z,7.82
2023-04-05T03:19:48.439Z,8.20
2023-04-05T03:22:17.286Z,8.48
2023-04-05T03:24:46.800Z,13.43
2023-04-05T03:27:16.826Z,9.20
2023-04-05T03:29:45.624Z,9.68
2023-04-05T03:32:14.063Z,9.05
2023-04-05T03:34:42.879Z,9.60
2023-04-05T03:37:11.556Z,10.52
2023-04-05T03:39:40.444Z,8.95
2023-04-05T03:42:09.246Z,9.02
2023-04-05T03:44:41.248Z,7.70
2023-04-05T03:47:10.100Z,11.10
2023-04-05T03:49:38.886Z,11.02
2023-04-05T03:52:10.146Z,9.35
2023-04-05T03:54:40.926Z,9.10
2023-04-05T03:57:09.719Z,10.40
2023-04-05T03:59:42.192Z,11.57
2023-04-05T04:02:10.979Z,9.30
2023-04-05T04:04:39.829Z,10.18
2023-04-05T04:07:08.570Z,10.57
2023-04-05T04:09:37.642Z,12.57
2023-04-05T04:12:06.649Z,9.70
2023-04-05T04:14:46.702Z,10.15
2023-04-05T04:17:28.274Z,8.93
2023-04-05T04:20:10.948Z,13.27
2023-04-05T04:22:40.585Z,12.00
2023-04-05T04:25:11.558Z,9.10
2023-04-05T04:27:42.199Z,11.38
2023-04-05T04:30:14.129Z,16.67
2023-04-05T04:32:52.166Z,12.65
2023-04-05T04:35:24.972Z,15.07
2023-04-05T04:37:55.144Z,11.00
2023-04-05T04:40:25.958Z,12.30
2023-04-05T04:42:55.011Z,11.70
2023-04-05T04:45:25.130Z,10.50
2023-04-05T04:47:54.941Z,12.27
2023-04-05T04:50:23.881Z,12.90
2023-04-05T04:52:52.563Z,10.50
2023-04-05T04:55:25.618Z,13.95
2023-04-05T04:57:54.873Z,9.65
2023-04-05T05:00:25.991Z,13.00
2023-04-05T05:02:55.184Z,13.65
2023-04-05T05:05:26.001Z,12.73
2023-04-05T05:07:54.848Z,12.35
2023-04-05T05:10:23.957Z,11.60
2023-04-05T05:12:55.814Z,10.93
2023-04-05T05:15:27.461Z,18.95
2023-04-05T05:17:56.414Z,16.33
2023-04-05T05:20:28.763Z,19.73
2023-04-05T05:22:57.708Z,15.27
2023-04-05T05:25:26.267Z,13.60
2023-04-05T05:27:55.143Z,13.70
2023-04-05T05:30:26.124Z,11.30
2023-04-05T05:32:54.899Z,10.90
2023-04-05T05:35:23.719Z,10.15
2023-04-05T05:37:54.854Z,10.07
2023-04-05T05:40:27.519Z,14.55
2023-04-05T05:42:56.342Z,10.13
2023-04-05T05:47:56.312Z,18.23
2023-04-05T05:50:25.132Z,16.60
2023-04-05T05:52:53.871Z,17.50
2023-04-05T05:55:22.554Z,15.13
2023-04-05T05:57:53.399Z,15.30
2023-04-05T06:00:23.119Z,13.98
2023-04-05T06:02:55.695Z,16.33
2023-04-05T06:05:26.530Z,13.02
2023-04-05T06:07:55.059Z,12.00
2023-04-05T06:10:26.109Z,17.70
2023-04-05T06:12:55.008Z,13.00
2023-04-05T06:15:23.704Z,13.48
2023-04-05T06:17:56.223Z,21.85
2023-04-05T06:20:25.149Z,13.27
2023-04-05T06:22:56.347Z,11.95
2023-04-05T06:25:24.837Z,10.60
2023-04-05T06:27:53.580Z,12.57
2023-04-05T06:30:24.244Z,11.68
2023-04-05T06:32:55.910Z,10.68
2023-04-05T06:35:24.769Z,13.90
2023-04-05T06:37:54.124Z,11.05
2023-04-05T06:40:22.820Z,13.02
2023-04-05T06:42:51.605Z,10.38
2023-04-05T06:45:20.726Z,13.30
2023-04-05T06:47:49.594Z,11.35
2023-04-05T06:50:19.721Z,11.20
2023-04-05T06:52:48.590Z,11.27
2023-04-05T06:55:17.533Z,16.35
2023-04-05T06:57:46.208Z,10.93
2023-04-05T07:00:17.800Z,13.02
2023-04-05T07:02:46.590Z,12.55
2023-04-05T07:05:26.905Z,9.40
2023-04-05T07:07:59.048Z,11.55
2023-04-05T07:10:35.077Z,9.15
2023-04-05T07:13:15.704Z,10.10
2023-04-05T07:15:53.566Z,9.00
2023-04-05T07:18:22.479Z,8.25
2023-04-05T07:21:00.577Z,7.78
2023-04-05T07:23:35.826Z,7.43
2023-04-05T07:26:21.864Z,6.35
2023-04-05T07:28:51.900Z,6.78
2023-04-05T07:31:25.930Z,7.47
2023-04-05T07:33:58.393Z,6.40
2023-04-05T07:36:37.652Z,6.57
2023-04-05T07:39:13.799Z,5.63
2023-04-05T07:42:00.076Z,5.65
2023-04-05T07:44:31.030Z,5.07
2023-04-05T07:47:09.909Z,6.97
2023-04-05T07:53:16.229Z,5.00
2023-04-05T07:55:46.906Z,6.28
2023-04-05T07:58:16.903Z,6.88
2023-04-05T08:00:54.201Z,7.20
2023-04-05T08:03:26.804Z,7.60
2023-04-05T08:06:30.743Z,5.47
2023-04-05T08:09:31.120Z,5.85
2023-04-05T08:12:13.777Z,7.40
2023-04-05T08:14:58.891Z,9.77
2023-04-05T08:21:04.201Z,6.50
2023-04-05T08:34:16.583Z,6.85
2023-04-05T08:48:13.302Z,7.60
2023-04-05T08:51:15.662Z,5.93
2023-04-05T08:57:36.550Z,6.57
2023-04-05T09:21:03.556Z,5.82
2023-04-05T09:24:05.824Z,4.50
2023-04-05T09:27:48.442Z,6.13
2023-04-05T09:31:37.154Z,5.47
2023-04-05T09:34:15.892Z,6.13
2023-04-05T09:37:37.297Z,5.45
2023-04-05T09:52:36.799Z,6.32
2023-04-05T09:55:25.092Z,4.78
2023-04-05T09:58:43.613Z,5.10
2023-04-05T10:01:37.673Z,6.72
2023-04-05T10:04:15.144Z,6.28
2023-04-05T10:07:17.802Z,6.60
2023-04-05T10:13:37.683Z,6.50
2023-04-05T10:23:26.433Z,6.38
2023-04-05T10:35:40.638Z,5.82
2023-04-05T10:38:28.659Z,5.75
2023-04-05T10:41:33.309Z,6.28
2023-04-05T10:46:50.960Z,6.82
2023-04-05T10:49:31.361Z,5.95
2023-04-05T10:52:03.519Z,7.78
2023-04-05T10:54:39.545Z,5.78
2023-04-05T10:57:21.097Z,6.28
2023-04-05T10:59:57.434Z,6.30
2023-04-05T11:05:44.691Z,5.88
2023-04-05T11:08:51.843Z,6.97
2023-04-05T11:12:00.092Z,6.30
2023-04-05T11:14:44.788Z,5.82
2023-04-05T11:17:50.508Z,7.30
2023-04-05T11:20:41.616Z,6.22
2023-04-05T11:27:46.558Z,5.78
2023-04-05T11:34:50.207Z,5.28
2023-04-05T11:41:41.145Z,5.97
2023-04-05T11:45:02.279Z,6.30
2023-04-05T12:02:02.861Z,6.72
2023-04-05T12:09:00.465Z,7.03
2023-04-05T12:23:31.382Z,6.32
2023-04-05T12:26:24.317Z,7.22
2023-04-05T12:39:44.803Z,6.30
2023-04-05T12:50:19.373Z,7.22
2023-04-05T12:53:45.323Z,7.25
2023-04-05T13:11:28.754Z,5.82
2023-04-05T13:14:02.649Z,6.10
2023-04-05T13:19:48.459Z,7.40
2023-04-05T13:33:27.612Z,6.20
2023-04-05T13:36:13.183Z,6.93
2023-04-05T13:39:37.142Z,5.70
2023-04-05T13:46:48.715Z,6.13
2023-04-05T13:50:11.664Z,8.45
2023-04-05T13:57:04.916Z,6.80
2023-04-05T14:03:32.256Z,6.20
2023-04-05T14:09:57.720Z,5.15
2023-04-05T14:12:51.360Z,6.72
2023-04-05T14:20:15.553Z,5.40
2023-04-05T17:36:03.629Z,7.03
2023-04-05T17:39:00.909Z,8.07
2023-04-05T17:41:49.896Z,6.82
2023-04-05T17:44:39.410Z,7.75
2023-04-05T17:47:39.403Z,7.55
2023-04-05T17:50:47.014Z,9.30
2023-04-05T17:53:45.172Z,6.38
2023-04-05T17:57:01.613Z,7.97
2023-04-05T18:00:03.171Z,6.68
2023-04-05T18:02:53.209Z,7.78
2023-04-05T18:22:37.563Z,7.50
2023-04-05T18:25:26.099Z,8.55
2023-04-05T18:28:22.847Z,10.55
2023-04-05T18:36:30.462Z,9.20
2023-04-05T18:52:53.247Z,15.75
2023-04-05T18:56:14.535Z,12.27
2023-04-05T18:58:58.332Z,14.02
2023-04-05T19:01:55.172Z,8.43
2023-04-05T19:04:39.944Z,18.75
2023-04-05T19:11:44.697Z,32.22
2023-04-05T19:14:45.944Z,16.05
2023-04-05T19:20:49.070Z,12.55
2023-04-05T19:23:58.731Z,11.18
2023-04-05T19:26:58.136Z,11.27
2023-04-05T19:29:52.619Z,8.82
2023-04-05T19:35:03.396Z,7.60
2023-04-05T19:37:37.238Z,7.40
2023-04-05T19:45:02.773Z,7.57
2023-04-05T19:47:34.426Z,9.35
2023-04-05T19:51:08.796Z,10.90
2023-04-05T19:53:35.848Z,10.63
2023-04-05T19:56:28.007Z,9.27
2023-04-05T19:59:20.356Z,9.90
2023-04-05T20:01:51.513Z,10.40
2023-04-05T20:08:07.072Z,8.05
2023-04-05T20:14:18.487Z,8.52
2023-04-05T20:17:09.417Z,11.90
2023-04-05T20:20:00.695Z,11.38
2023-04-05T20:22:36.545Z,15.82
2023-04-05T20:25:28.681Z,15.50
2023-04-05T20:28:07.628Z,12.43
2023-04-05T20:31:40.990Z,14.13
2023-04-05T20:34:21.034Z,10.93
2023-04-05T20:37:06.040Z,8.90
2023-04-05T20:39:50.946Z,10.90
2023-04-05T20:42:47.389Z,12.05
2023-04-05T20:49:01.935Z,9.07
2023-04-05T20:51:59.927Z,13.85
2023-04-05T20:54:52.296Z,9.93
2023-04-05T20:57:38.274Z,9.57
2023-04-05T21:00:12.264Z,9.07
2023-04-05T21:02:50.899Z,7.22
2023-04-05T21:05:28.514Z,5.78
2023-04-05T21:08:08.851Z,8.88
2023-04-05T21:10:49.705Z,8.20
2023-04-05T21:13:20.275Z,7.72
2023-04-05T21:15:54.674Z,8.80
2023-04-05T21:18:27.865Z,9.85
2023-04-05T21:21:11.129Z,8.75
2023-04-05T21:23:45.662Z,8.73
2023-04-05T21:26:22.572Z,8.13
2023-04-05T21:28:53.559Z,8.50
2023-04-05T21:31:28.029Z,8.98
2023-04-05T21:33:59.630Z,9.90
2023-04-05T21:36:28.280Z,7.55
2023-04-05T21:39:11.449Z,9.25
2023-04-05T21:41:41.777Z,10.02
2023-04-05T21:44:13.883Z,9.57
2023-04-05T21:46:53.101Z,8.70
2023-04-05T21:49:25.090Z,11.38
2023-04-05T21:51:54.303Z,8.80
2023-04-05T21:54:29.543Z,8.93
2023-04-05T21:57:03.122Z,6.78
2023-04-05T21:59:38.466Z,20.77
2023-04-05T22:02:16.201Z,16.48
2023-04-05T22:04:45.677Z,20.00
2023-04-05T22:07:14.647Z,14.35
2023-04-05T22:09:46.961Z,12.70
2023-04-05T22:12:18.215Z,11.35
2023-04-05T22:14:48.887Z,12.40
2023-04-05T22:17:20.147Z,10.57
2023-04-05T22:19:52.723Z,10.75
2023-04-05T22:22:21.519Z,9.30
2023-04-05T22:24:53.639Z,9.70
2023-04-05T22:27:24.252Z,9.27
2023-04-05T22:29:54.639Z,10.80
2023-04-05T22:32:23.901Z,11.90
2023-04-05T22:34:52.507Z,9.15
2023-04-05T22:37:24.229Z,10.68
2023-04-05T22:39:52.746Z,11.30
2023-04-05T22:42:21.358Z,10.50
2023-04-05T22:44:51.497Z,9.85
2023-04-05T22:47:22.582Z,10.07
2023-04-05T22:49:52.053Z,9.82
2023-04-05T22:52:20.677Z,15.05
2023-04-05T22:54:49.879Z,18.75
2023-04-05T22:57:18.421Z,18.10
2023-04-05T23:00:02.312Z,12.68
2023-04-05T23:02:33.221Z,14.35
2023-04-05T23:05:03.905Z,12.65
2023-04-05T23:07:32.829Z,11.43
2023-04-05T23:10:05.570Z,11.90
2023-04-05T23:12:35.575Z,20.77
2023-04-05T23:15:06.208Z,15.60
2023-04-05T23:17:38.132Z,16.38
2023-04-05T23:20:07.433Z,14.38
2023-04-05T23:22:39.052Z,13.85
2023-04-05T23:25:10.630Z,12.50
2023-04-05T23:27:41.190Z,13.85
2023-04-05T23:30:10.151Z,12.55
2023-04-05T23:32:41.167Z,12.68
2023-04-05T23:35:09.905Z,11.65
2023-04-05T23:37:41.467Z,10.20
2023-04-05T23:40:12.748Z,13.32
2023-04-05T23:42:41.910Z,13.07
2023-04-05T23:45:12.662Z,11.82
2023-04-05T23:47:43.823Z,11.80
2023-04-05T23:50:18.910Z,10.82
2023-04-05T23:52:49.123Z,10.57
2023-04-05T23:55:17.732Z,12.20
2023-04-05T23:57:46.486Z,10.25
